Terminal Aerodrome Forecast
Issued by NWS Atlanta, GA

Home | Current Version | Previous Version | Text Only | Print | Product List | Glossary On
Versions: 1 2 3 4 5 6 7 8 9 10 11 12 13 14 15
000
FTUS42 KFFC 280520
TAFMCN
TAF
KMCN 280520Z 2806/2906 07004KT P6SM SCT030 SCT080
     FM280800 06004KT P6SM SCT010
     FM281000 06005KT P6SM BKN008
     FM281400 09007KT P6SM BKN015
     FM281700 09008KT P6SM BKN035
     FM282200 10006KT P6SM SCT045 SCT250
     FM290100 10004KT P6SM SCT050 SCT250=

USA.gov is the U.S. government's official web portal to all federal, state and local government web resources and services.